createdAt,value
2018-04-14T00:00:08.056Z,12.11
2018-04-14T00:02:36.696Z,12.06
2018-04-14T00:05:05.241Z,12.04
2018-04-14T00:07:33.713Z,12.05
2018-04-14T00:10:02.425Z,12.05
2018-04-14T00:12:31.315Z,12.06
2018-04-14T00:14:59.963Z,12.03
2018-04-14T00:17:28.421Z,12.02
2018-04-14T00:19:56.916Z,11.99
2018-04-14T00:22:26.048Z,12.04
2018-04-14T00:27:29.250Z,11.98
2018-04-14T00:29:58.107Z,11.96
2018-04-14T00:32:26.659Z,11.96
2018-04-14T00:34:55.383Z,11.95
2018-04-14T00:37:23.875Z,11.93
2018-04-14T00:39:52.528Z,11.96
2018-04-14T00:42:21.562Z,11.91
2018-04-14T00:44:50.485Z,11.82
2018-04-14T00:47:19.103Z,11.86
2018-04-14T00:49:47.451Z,11.79
2018-04-14T00:52:16.972Z,11.86
2018-04-14T00:54:45.516Z,11.79
2018-04-14T00:57:14.106Z,11.81
2018-04-14T00:59:42.608Z,11.77
2018-04-14T01:02:11.102Z,11.76
2018-04-14T01:04:39.554Z,11.73
2018-04-14T01:07:08.110Z,11.69
2018-04-14T01:09:36.621Z,11.70
2018-04-14T01:12:05.523Z,11.64
2018-04-14T01:14:33.943Z,11.54
2018-04-14T01:17:02.632Z,11.58
2018-04-14T01:19:31.168Z,11.60
2018-04-14T01:21:59.880Z,11.56
2018-04-14T01:24:28.412Z,11.56
2018-04-14T01:26:56.972Z,11.51
2018-04-14T01:29:25.495Z,11.48
2018-04-14T01:31:53.916Z,11.52
2018-04-14T01:34:22.410Z,11.56
2018-04-14T01:36:51.251Z,11.60
2018-04-14T01:39:19.713Z,11.61
2018-04-14T01:41:48.359Z,11.63
2018-04-14T01:44:17.086Z,11.58
2018-04-14T01:46:45.546Z,11.70
2018-04-14T01:49:14.162Z,11.70
2018-04-14T01:51:42.803Z,11.59
2018-04-14T01:54:11.311Z,11.57
2018-04-14T01:56:39.758Z,11.56
2018-04-14T01:59:08.228Z,11.60
2018-04-14T02:01:36.952Z,11.62
2018-04-14T02:04:05.626Z,11.64
2018-04-14T02:06:40.515Z,11.61
2018-04-14T02:09:09.295Z,11.60
2018-04-14T02:11:37.920Z,11.63
2018-04-14T02:14:06.894Z,11.62
2018-04-14T02:16:35.640Z,11.59
2018-04-14T02:19:04.341Z,11.62
2018-04-14T02:21:36.317Z,11.64
2018-04-14T02:24:04.795Z,11.65
2018-04-14T02:26:33.470Z,11.63
2018-04-14T02:29:02.325Z,11.62
2018-04-14T02:31:30.786Z,11.56
2018-04-14T02:35:02.634Z,11.64
2018-04-14T02:37:31.276Z,11.59
2018-04-14T02:39:59.800Z,11.61
2018-04-14T02:42:28.409Z,11.64
2018-04-14T02:44:56.880Z,11.57
2018-04-14T02:47:25.358Z,11.63
2018-04-14T02:49:53.768Z,11.63
2018-04-14T02:52:22.363Z,11.59
2018-04-14T02:54:50.986Z,11.59
2018-04-14T02:57:19.503Z,11.50
2018-04-14T02:59:47.964Z,11.55
2018-04-14T03:02:16.724Z,11.60
2018-04-14T03:04:45.331Z,11.66
2018-04-14T03:07:14.073Z,11.62
2018-04-14T03:09:42.676Z,11.67
2018-04-14T03:12:11.616Z,11.59
2018-04-14T03:14:40.280Z,11.58
2018-04-14T03:17:08.959Z,11.58
2018-04-14T03:19:37.543Z,11.68
2018-04-14T03:23:09.224Z,11.64
2018-04-14T03:25:37.788Z,11.72
2018-04-14T03:28:06.451Z,11.71
2018-04-14T03:30:35.292Z,11.78
2018-04-14T03:33:03.724Z,11.72
2018-04-14T03:35:32.225Z,11.72
2018-04-14T03:38:00.721Z,11.70
2018-04-14T03:40:29.659Z,11.69
2018-04-14T03:42:58.423Z,11.59
2018-04-14T03:45:26.978Z,11.65
2018-04-14T03:47:55.666Z,11.62
2018-04-14T03:50:24.159Z,11.55
2018-04-14T03:52:52.626Z,11.47
2018-04-14T03:55:21.414Z,11.53
2018-04-14T03:57:49.985Z,11.49
2018-04-14T04:03:14.051Z,11.45
2018-04-14T04:05:42.572Z,11.39
2018-04-14T04:08:10.961Z,11.26
2018-04-14T04:10:39.307Z,11.27
2018-04-14T04:13:07.639Z,11.30
2018-04-14T04:15:35.977Z,11.25
2018-04-14T04:18:04.263Z,11.29
2018-04-14T04:20:41.546Z,11.20
2018-04-14T04:25:22.134Z,11.18
2018-04-14T04:27:50.605Z,11.17
2018-04-14T04:30:18.964Z,11.21
2018-04-14T04:32:47.412Z,11.22
2018-04-14T04:35:16.249Z,11.25
2018-04-14T04:37:44.580Z,11.31
2018-04-14T04:40:12.967Z,11.27
2018-04-14T04:42:41.285Z,11.25
2018-04-14T04:45:09.608Z,11.30
2018-04-14T04:47:37.918Z,11.30
2018-04-14T04:50:06.239Z,11.37
2018-04-14T04:52:34.713Z,11.38
2018-04-14T04:55:03.079Z,11.41
2018-04-14T04:57:31.412Z,11.35
2018-04-14T05:00:00.016Z,11.44
2018-04-14T05:02:28.339Z,11.47
2018-04-14T05:04:56.627Z,11.47
2018-04-14T05:07:28.005Z,11.50
2018-04-14T05:09:56.306Z,11.43
2018-04-14T05:12:24.636Z,11.42
2018-04-14T05:14:53.039Z,11.37
2018-04-14T05:17:21.556Z,11.40
2018-04-14T05:19:49.980Z,11.42
2018-04-14T05:22:18.294Z,11.43
2018-04-14T05:24:46.743Z,11.46
2018-04-14T05:27:15.147Z,11.50
2018-04-14T05:29:43.680Z,11.44
2018-04-14T05:32:12.004Z,11.38
2018-04-14T05:34:40.452Z,11.39
2018-04-14T05:37:08.785Z,11.42
2018-04-14T05:39:37.240Z,11.45
2018-04-14T05:42:05.748Z,11.45
2018-04-14T05:44:34.077Z,11.37
2018-04-14T05:47:02.495Z,11.42
2018-04-14T05:49:30.979Z,11.40
2018-04-14T05:51:59.356Z,11.48
2018-04-14T05:54:27.644Z,11.52
2018-04-14T05:56:55.987Z,11.45
2018-04-14T05:59:24.287Z,11.40
2018-04-14T06:01:52.768Z,11.43
2018-04-14T06:04:21.081Z,11.50
2018-04-14T06:06:49.515Z,11.42
2018-04-14T06:09:17.844Z,11.45
2018-04-14T06:11:46.172Z,11.45
2018-04-14T06:14:14.576Z,11.39
2018-04-14T06:16:42.949Z,11.34
2018-04-14T06:19:11.289Z,11.35
2018-04-14T06:21:39.707Z,11.33
2018-04-14T06:24:08.144Z,11.46
2018-04-14T06:26:36.455Z,11.42
2018-04-14T06:29:04.770Z,11.57
2018-04-14T06:31:33.092Z,11.48
2018-04-14T06:34:01.428Z,11.62
2018-04-14T06:36:29.760Z,11.72
2018-04-14T06:38:58.078Z,11.67
2018-04-14T06:41:26.400Z,11.68
2018-04-14T06:43:54.720Z,11.79
2018-04-14T06:46:23.100Z,11.84
2018-04-14T06:48:51.652Z,11.81
2018-04-14T06:51:20.555Z,11.75
2018-04-14T06:53:48.976Z,11.72
2018-04-14T06:56:17.341Z,11.69
2018-04-14T06:58:51.242Z,11.82
2018-04-14T07:01:21.982Z,11.84
2018-04-14T07:03:50.920Z,11.88
2018-04-14T07:06:19.980Z,11.87
2018-04-14T07:08:48.330Z,11.97
2018-04-14T07:11:17.229Z,12.22
2018-04-14T07:13:45.547Z,12.30
2018-04-14T07:16:13.967Z,12.46
2018-04-14T07:18:42.404Z,12.35
2018-04-14T07:21:10.944Z,12.40
2018-04-14T07:23:39.259Z,12.50
2018-04-14T07:26:07.749Z,12.64
2018-04-14T07:28:36.167Z,12.92
2018-04-14T07:31:04.569Z,13.15
2018-04-14T07:33:32.917Z,13.29
2018-04-14T07:36:01.439Z,13.49
2018-04-14T07:38:29.753Z,13.46
2018-04-14T07:40:59.065Z,13.63
2018-04-14T07:43:27.774Z,13.85
2018-04-14T07:45:56.128Z,14.12
2018-04-14T07:48:24.774Z,14.10
2018-04-14T07:50:53.803Z,13.81
2018-04-14T07:53:22.079Z,13.57
2018-04-14T07:55:50.411Z,13.45
2018-04-14T07:58:18.747Z,13.45
2018-04-14T08:00:47.139Z,13.51
2018-04-14T08:03:15.819Z,13.63
2018-04-14T08:05:44.141Z,13.57
2018-04-14T08:08:12.666Z,13.76
2018-04-14T08:10:41.056Z,13.81
2018-04-14T08:13:09.488Z,13.76
2018-04-14T08:15:37.936Z,14.02
2018-04-14T08:18:06.268Z,14.15
2018-04-14T08:20:34.575Z,14.20
2018-04-14T08:23:02.875Z,14.34
2018-04-14T08:25:31.992Z,14.31
2018-04-14T08:28:00.384Z,14.04
2018-04-14T08:30:28.777Z,14.38
2018-04-14T08:32:57.192Z,14.35
2018-04-14T08:35:25.697Z,14.35
2018-04-14T08:37:54.072Z,14.93
2018-04-14T08:40:22.392Z,15.19
2018-04-14T08:42:50.792Z,15.74
2018-04-14T08:45:19.456Z,15.36
2018-04-14T08:47:47.933Z,15.21
2018-04-14T08:50:16.447Z,14.86
2018-04-14T08:52:44.737Z,14.66
2018-04-14T08:55:13.388Z,14.39
2018-04-14T08:57:41.697Z,14.33
2018-04-14T09:00:10.087Z,14.37
2018-04-14T09:02:38.431Z,14.75
2018-04-14T09:05:06.793Z,14.71
2018-04-14T09:07:35.101Z,14.69
2018-04-14T09:10:03.467Z,14.58
2018-04-14T09:12:31.832Z,14.54
2018-04-14T09:15:03.315Z,14.61
2018-04-14T09:17:32.217Z,14.79
2018-04-14T09:20:00.779Z,14.86
2018-04-14T09:22:29.199Z,15.03
2018-04-14T09:24:57.704Z,15.01
2018-04-14T09:27:26.022Z,15.30
2018-04-14T09:29:54.296Z,15.87
2018-04-14T09:32:22.673Z,16.33
2018-04-14T09:34:54.548Z,16.40
2018-04-14T09:37:25.740Z,16.57
2018-04-14T09:39:55.127Z,16.43
2018-04-14T09:42:26.500Z,16.23
2018-04-14T09:44:54.794Z,15.96
2018-04-14T09:47:23.218Z,15.83
2018-04-14T09:49:51.833Z,15.65
2018-04-14T09:52:20.167Z,15.54
2018-04-14T09:54:49.158Z,15.58
2018-04-14T09:57:17.540Z,15.69
2018-04-14T09:59:45.827Z,15.80
2018-04-14T10:02:14.211Z,15.93
2018-04-14T10:04:42.521Z,16.21
2018-04-14T10:07:11.954Z,16.18
2018-04-14T10:09:40.297Z,16.32
2018-04-14T10:12:08.615Z,16.42
2018-04-14T10:14:36.978Z,16.85
2018-04-14T10:17:05.474Z,16.93
2018-04-14T10:19:34.859Z,17.70
2018-04-14T10:22:03.332Z,17.47
2018-04-14T10:24:31.662Z,17.36
2018-04-14T10:27:00.067Z,17.19
2018-04-14T10:29:28.405Z,16.84
2018-04-14T10:31:56.729Z,17.06
2018-04-14T10:34:25.771Z,17.52
2018-04-14T10:36:54.444Z,17.13
2018-04-14T10:39:23.734Z,17.26
2018-04-14T10:41:52.641Z,17.12
2018-04-14T10:44:21.005Z,17.03
2018-04-14T10:46:49.339Z,17.14
2018-04-14T10:49:17.832Z,17.49
2018-04-14T10:51:46.607Z,18.14
2018-04-14T10:54:16.776Z,17.97
2018-04-14T10:56:45.235Z,17.93
2018-04-14T10:59:13.537Z,18.65
2018-04-14T11:01:42.027Z,18.88
2018-04-14T11:04:10.327Z,19.37
2018-04-14T11:06:38.977Z,18.98
2018-04-14T11:09:07.512Z,18.54
2018-04-14T11:11:35.863Z,18.29
2018-04-14T11:14:04.207Z,17.77
2018-04-14T11:16:32.532Z,17.50
2018-04-14T11:19:00.864Z,17.68
2018-04-14T11:21:29.336Z,17.92
2018-04-14T11:23:57.740Z,17.79
2018-04-14T11:26:26.175Z,17.77
2018-04-14T11:28:54.461Z,17.92
2018-04-14T11:31:22.896Z,18.37
2018-04-14T11:33:51.179Z,18.18
2018-04-14T11:36:19.599Z,18.03
2018-04-14T11:38:48.179Z,17.59
2018-04-14T11:41:16.545Z,17.67
2018-04-14T11:43:44.888Z,17.46
2018-04-14T11:46:13.268Z,17.12
2018-04-14T11:48:41.779Z,16.92
2018-04-14T11:51:10.167Z,16.69
2018-04-14T11:53:38.565Z,16.65
2018-04-14T11:56:06.931Z,16.47
2018-04-14T11:58:35.307Z,16.33
2018-04-14T12:01:03.640Z,16.09
2018-04-14T12:03:32.080Z,15.96
2018-04-14T12:06:00.509Z,15.58
2018-04-14T12:08:29.132Z,15.31
2018-04-14T12:10:57.653Z,15.04
2018-04-14T12:13:26.251Z,14.86
2018-04-14T12:15:54.694Z,14.48
2018-04-14T12:18:23.182Z,14.42
2018-04-14T12:20:51.643Z,14.24
2018-04-14T12:23:20.323Z,14.16
2018-04-14T12:25:48.631Z,14.34
2018-04-14T12:28:16.941Z,14.43
2018-04-14T12:30:45.296Z,14.60
2018-04-14T12:33:13.843Z,14.64
2018-04-14T12:35:42.363Z,14.78
2018-04-14T12:38:10.807Z,14.62
2018-04-14T12:40:39.195Z,14.33
2018-04-14T12:43:07.616Z,14.30
2018-04-14T12:45:35.924Z,14.36
2018-04-14T12:48:04.296Z,14.29
2018-04-14T12:50:32.608Z,14.66
2018-04-14T12:53:01.097Z,15.81
2018-04-14T12:55:29.511Z,15.92
2018-04-14T12:57:57.860Z,15.27
2018-04-14T13:00:26.344Z,15.32
2018-04-14T13:02:54.764Z,15.17
2018-04-14T13:05:23.166Z,15.05
2018-04-14T13:07:51.535Z,15.45
2018-04-14T13:10:19.914Z,16.55
2018-04-14T13:12:48.553Z,16.04
2018-04-14T13:15:17.004Z,16.25
2018-04-14T13:17:45.560Z,17.05
2018-04-14T13:20:13.881Z,21.02
2018-04-14T13:22:42.183Z,22.34
2018-04-14T13:25:10.573Z,23.18
2018-04-14T13:27:38.898Z,22.75
2018-04-14T13:30:07.447Z,23.76
2018-04-14T13:32:35.761Z,23.97
2018-04-14T13:35:04.110Z,24.30
2018-04-14T13:37:32.534Z,25.10
2018-04-14T13:40:01.052Z,24.83
2018-04-14T13:42:29.460Z,25.15
2018-04-14T13:44:57.803Z,25.92
2018-04-14T13:47:26.210Z,25.55
2018-04-14T13:49:54.531Z,25.64
2018-04-14T13:52:22.894Z,25.76
2018-04-14T13:54:51.524Z,25.45
2018-04-14T13:57:19.995Z,25.66
2018-04-14T13:59:48.358Z,25.60
2018-04-14T14:02:16.729Z,26.83
2018-04-14T14:04:45.744Z,26.68
2018-04-14T14:07:14.117Z,26.12
2018-04-14T14:09:42.407Z,24.84
2018-04-14T14:12:10.763Z,26.25
2018-04-14T14:14:39.052Z,25.58
2018-04-14T14:17:07.598Z,26.42
2018-04-14T14:19:36.078Z,25.70
2018-04-14T14:22:04.620Z,25.64
2018-04-14T14:24:32.915Z,23.82
2018-04-14T14:27:01.312Z,21.74
2018-04-14T14:29:29.709Z,21.70
2018-04-14T14:31:58.076Z,21.06
2018-04-14T14:34:26.356Z,20.57
2018-04-14T14:36:54.822Z,20.64
2018-04-14T14:39:23.112Z,20.69
2018-04-14T14:41:51.751Z,20.45
2018-04-14T14:44:20.264Z,20.07
2018-04-14T14:46:48.757Z,19.82
2018-04-14T14:49:17.111Z,19.32
2018-04-14T14:51:45.739Z,19.65
2018-04-14T14:54:15.968Z,19.32
2018-04-14T14:56:44.468Z,19.96
2018-04-14T14:59:12.886Z,19.75
2018-04-14T15:01:42.492Z,19.87
2018-04-14T15:04:11.200Z,19.43
2018-04-14T15:06:40.125Z,19.53
2018-04-14T15:09:08.540Z,19.60
2018-04-14T15:11:36.895Z,19.42
2018-04-14T15:14:05.227Z,19.74
2018-04-14T15:16:33.620Z,19.37
2018-04-14T15:19:01.906Z,19.39
2018-04-14T15:21:30.351Z,19.65
2018-04-14T15:23:58.805Z,19.47
2018-04-14T15:26:27.149Z,19.74
2018-04-14T15:28:55.443Z,20.08
2018-04-14T15:31:23.908Z,19.90
2018-04-14T15:33:52.307Z,19.65
2018-04-14T15:36:21.716Z,19.36
2018-04-14T15:38:50.202Z,18.88
2018-04-14T15:41:18.523Z,18.91
2018-04-14T15:43:46.846Z,18.84
2018-04-14T15:46:15.199Z,18.76
2018-04-14T15:48:44.766Z,18.76
2018-04-14T15:51:14.384Z,18.58
2018-04-14T15:53:43.560Z,18.69
2018-04-14T15:56:12.366Z,19.11
2018-04-14T15:58:40.663Z,19.29
2018-04-14T16:01:08.980Z,19.15
2018-04-14T16:03:44.723Z,19.11
2018-04-14T16:06:07.083Z,18.80
2018-04-14T16:08:35.400Z,18.67
2018-04-14T16:11:03.872Z,18.86
2018-04-14T16:13:32.323Z,18.61
2018-04-14T16:16:00.916Z,18.46
2018-04-14T16:18:29.276Z,18.26
2018-04-14T16:21:04.267Z,18.24
2018-04-14T16:23:32.597Z,18.37
2018-04-14T16:26:01.090Z,18.19
2018-04-14T16:28:29.915Z,18.10
2018-04-14T16:30:58.231Z,18.11
2018-04-14T16:33:26.563Z,18.04
2018-04-14T16:35:54.897Z,18.01
2018-04-14T16:38:23.313Z,18.04
2018-04-14T16:40:51.656Z,17.79
2018-04-14T16:43:20.048Z,17.80
2018-04-14T16:45:48.412Z,18.50
2018-04-14T16:48:16.789Z,18.26
2018-04-14T16:50:45.248Z,18.11
2018-04-14T16:53:13.576Z,17.90
2018-04-14T16:55:42.068Z,17.71
2018-04-14T16:58:10.355Z,17.74
2018-04-14T17:00:38.827Z,17.52
2018-04-14T17:03:07.400Z,17.32
2018-04-14T17:05:35.843Z,17.02
2018-04-14T17:08:04.227Z,17.20
2018-04-14T17:10:32.591Z,16.97
2018-04-14T17:13:00.879Z,16.74
2018-04-14T17:15:29.201Z,16.72
2018-04-14T17:17:57.487Z,16.75
2018-04-14T17:20:25.891Z,16.58
2018-04-14T17:22:54.177Z,16.50
2018-04-14T17:25:22.536Z,16.49
2018-04-14T17:27:51.164Z,16.30
2018-04-14T17:30:19.483Z,16.04
2018-04-14T17:32:47.821Z,15.94
2018-04-14T17:35:16.156Z,15.87
2018-04-14T17:37:44.451Z,15.61
2018-04-14T17:40:12.843Z,15.45
2018-04-14T17:42:41.335Z,15.23
2018-04-14T17:45:09.668Z,15.28
2018-04-14T17:47:38.015Z,15.16
2018-04-14T17:50:06.392Z,14.99
2018-04-14T17:52:34.939Z,14.60
2018-04-14T17:55:05.091Z,14.34
2018-04-14T17:57:33.467Z,14.15
2018-04-14T18:00:01.767Z,14.04
2018-04-14T18:02:30.121Z,14.14
2018-04-14T18:05:04.083Z,14.30
2018-04-14T18:07:33.048Z,14.43
2018-04-14T18:10:01.315Z,14.10
2018-04-14T18:12:29.680Z,13.90
2018-04-14T18:14:57.971Z,13.95
2018-04-14T18:17:26.623Z,14.00
2018-04-14T18:19:54.915Z,14.02
2018-04-14T18:22:24.433Z,14.02
2018-04-14T18:24:52.823Z,13.82
2018-04-14T18:27:21.160Z,13.70
2018-04-14T18:29:49.447Z,13.78
2018-04-14T18:32:17.781Z,13.35
2018-04-14T18:34:46.208Z,13.41
2018-04-14T18:37:14.903Z,13.51
2018-04-14T18:39:44.250Z,13.54
2018-04-14T18:42:12.923Z,13.43
2018-04-14T18:44:41.267Z,13.17
2018-04-14T18:47:10.493Z,13.17
2018-04-14T18:49:39.032Z,13.11
2018-04-14T18:52:08.267Z,13.13
2018-04-14T18:54:36.738Z,13.10
2018-04-14T18:57:05.113Z,12.98
2018-04-14T18:59:33.431Z,12.80
2018-04-14T19:02:01.815Z,12.71
2018-04-14T19:04:30.112Z,12.68
2018-04-14T19:06:58.520Z,12.65
2018-04-14T19:09:26.991Z,12.70
2018-04-14T19:11:55.355Z,12.76
2018-04-14T19:14:23.716Z,12.69
2018-04-14T19:16:52.230Z,12.61
2018-04-14T19:19:20.723Z,12.57
2018-04-14T19:21:49.084Z,12.64
2018-04-14T19:24:17.448Z,12.58
2018-04-14T19:26:45.973Z,12.60
2018-04-14T19:29:14.340Z,12.24
2018-04-14T19:31:42.689Z,12.35
2018-04-14T19:34:10.978Z,12.31
2018-04-14T19:36:39.347Z,12.23
2018-04-14T19:39:07.628Z,12.11
2018-04-14T19:41:36.032Z,12.10
2018-04-14T19:44:04.346Z,12.00
2018-04-14T19:46:32.959Z,11.95
2018-04-14T19:49:01.267Z,11.98
2018-04-14T19:51:29.642Z,12.10
2018-04-14T19:53:59.896Z,12.17
2018-04-14T19:56:30.348Z,12.07
2018-04-14T19:58:58.889Z,11.85
2018-04-14T20:01:27.340Z,11.98
2018-04-14T20:03:55.787Z,12.09
2018-04-14T20:06:24.235Z,11.92
2018-04-14T20:08:52.559Z,11.62
2018-04-14T20:11:21.999Z,11.80
2018-04-14T20:13:50.339Z,11.78
2018-04-14T20:16:18.839Z,11.78
2018-04-14T20:18:47.339Z,11.71
2018-04-14T20:21:15.707Z,11.58
2018-04-14T20:23:44.406Z,11.63
2018-04-14T20:26:12.892Z,11.75
2018-04-14T20:28:41.303Z,11.72
2018-04-14T20:31:09.733Z,11.58
2018-04-14T20:33:38.031Z,11.62
2018-04-14T20:36:06.425Z,11.56
2018-04-14T20:38:34.773Z,11.47
2018-04-14T20:41:03.125Z,11.65
2018-04-14T20:43:31.979Z,11.61
2018-04-14T20:46:00.308Z,11.46
2018-04-14T20:48:28.663Z,11.45
2018-04-14T20:50:57.006Z,11.43
2018-04-14T20:53:25.369Z,11.28
2018-04-14T20:55:53.784Z,11.25
2018-04-14T20:58:22.160Z,11.18
2018-04-14T21:00:50.487Z,11.20
2018-04-14T21:03:18.825Z,11.22
2018-04-14T21:05:47.355Z,11.00
2018-04-14T21:08:15.703Z,11.06
2018-04-14T21:10:44.114Z,10.93
2018-04-14T21:13:12.502Z,11.00
2018-04-14T21:15:40.851Z,10.96
2018-04-14T21:18:09.195Z,10.95
2018-04-14T21:20:37.531Z,10.95
2018-04-14T21:23:05.919Z,11.00
2018-04-14T21:25:35.817Z,10.85
2018-04-14T21:28:06.449Z,10.87
2018-04-14T21:30:37.420Z,10.96
2018-04-14T21:33:05.931Z,10.92
2018-04-14T21:35:35.469Z,10.99
2018-04-14T21:38:04.536Z,10.95
2018-04-14T21:40:32.849Z,11.03
2018-04-14T21:43:01.505Z,11.09
2018-04-14T21:45:30.183Z,11.06
2018-04-14T21:48:00.503Z,10.85
2018-04-14T21:50:29.287Z,10.69
2018-04-14T21:53:00.788Z,10.63
2018-04-14T21:55:31.212Z,10.77
2018-04-14T21:57:59.880Z,10.70
2018-04-14T22:00:28.331Z,10.66
2018-04-14T22:02:57.398Z,10.80
2018-04-14T22:05:26.328Z,10.65
2018-04-14T22:07:54.690Z,10.57
2018-04-14T22:10:26.069Z,10.59
2018-04-14T22:12:57.724Z,10.55
2018-04-14T22:15:26.171Z,10.55
2018-04-14T22:17:54.660Z,10.69
2018-04-14T22:20:23.041Z,10.63
2018-04-14T22:22:51.534Z,10.59
2018-04-14T22:25:19.950Z,10.46
2018-04-14T22:27:48.330Z,10.39
2018-04-14T22:30:16.832Z,10.38
2018-04-14T22:32:45.242Z,10.41
2018-04-14T22:35:13.649Z,10.27
2018-04-14T22:37:42.066Z,10.43
2018-04-14T22:40:10.416Z,10.34
2018-04-14T22:42:38.785Z,10.27
2018-04-14T22:45:07.192Z,10.27
2018-04-14T22:47:35.540Z,10.02
2018-04-14T22:50:03.876Z,10.11
2018-04-14T22:52:32.185Z,10.07
2018-04-14T22:55:00.495Z,9.94
2018-04-14T22:57:59.964Z,9.91
2018-04-14T23:00:28.636Z,10.12
2018-04-14T23:02:57.226Z,10.08
2018-04-14T23:05:25.588Z,10.16
2018-04-14T23:07:53.941Z,10.12
2018-04-14T23:10:22.572Z,10.04
2018-04-14T23:12:50.998Z,9.91
2018-04-14T23:15:19.368Z,9.90
2018-04-14T23:17:47.669Z,9.99
2018-04-14T23:20:16.296Z,9.98
2018-04-14T23:22:44.588Z,9.90
2018-04-14T23:25:13.007Z,9.84
2018-04-14T23:27:41.380Z,9.85
2018-04-14T23:30:10.125Z,9.86
2018-04-14T23:32:38.503Z,9.91
2018-04-14T23:35:06.920Z,9.85
2018-04-14T23:37:35.342Z,9.61
2018-04-14T23:40:03.892Z,9.82
2018-04-14T23:42:32.287Z,9.88
2018-04-14T23:45:00.632Z,9.76
2018-04-14T23:47:29.356Z,9.72
2018-04-14T23:49:57.691Z,9.84
2018-04-14T23:52:26.472Z,9.87
2018-04-14T23:54:54.871Z,9.85
2018-04-14T23:57:23.448Z,9.73
2018-04-14T23:59:51.805Z,9.68
